Terminal Aerodrome Forecast
Issued by NWS

Home | Current Version | Previous Version | Text Only | Print | Product List | Glossary On
Versions: 1 2 3 4 5 6 7 8 9 10 11 12 13 14 15 16 17 18 19 20 21
871
FTUS43 KGRR 181741
TAFJXN
TAF
KJXN 181741Z 1818/1918 35012G23KT 3SM -RA BR VCTS OVC003CB
     FM182200 34016G26KT 6SM BR OVC012
     FM190000 33020G30KT P6SM OVC025
     FM190600 31012KT P6SM -SHSN OVC030=

USA.gov is the U.S. government's official web portal to all federal, state and local government web resources and services.